Sheridan, Oregon
Current Conditions -  °F | °C
As of 1:53 AM on Saturday 20 Dec 2014 (Local Time) from KMMV Reporting Station
Light Rain Light Rain  
Wind Chill: 43°   Ceiling: 2100
Heat Index: 48°   Visibility: 10mi
Dew Point: 46°   Wind: 13mph
Humidity: 93%   Direction: 150°SSE
Pressure: 29.83"   Gusts: NA
Location:  45.1°N, 123.39°W
Report Text: KMMV 200953Z AUTO 15011KT 10SM -RA BKN021 BKN026 OVC043 09/08 A2983 RMK AO2 SLP102 P0005 T00890078
Loading
Personal Weather Stations






























Interactive Weather Map New forecast layout! Learn more

10-Day Weather Forecast

Advertisements
Track Severe Weather on mobile